createdAt,value
2018-08-20T00:00:33.463Z,9.75
2018-08-20T00:01:39.741Z,9.70
2018-08-20T00:02:43.674Z,8.23
2018-08-20T00:03:49.555Z,9.08
2018-08-20T00:04:53.391Z,8.60
2018-08-20T00:05:57.088Z,8.60
2018-08-20T00:07:00.580Z,9.00
2018-08-20T00:08:04.242Z,9.18
2018-08-20T00:09:07.959Z,8.73
2018-08-20T00:10:11.983Z,8.05
2018-08-20T00:11:16.628Z,8.80
2018-08-20T00:12:20.289Z,9.35
2018-08-20T00:13:24.399Z,8.93
2018-08-20T00:14:28.502Z,8.35
2018-08-20T00:15:32.681Z,8.38
2018-08-20T00:16:36.348Z,8.93
2018-08-20T00:17:39.971Z,8.53
2018-08-20T00:18:43.500Z,7.78
2018-08-20T00:19:47.950Z,7.42
2018-08-20T00:20:52.114Z,9.13
2018-08-20T00:21:55.576Z,7.90
2018-08-20T00:22:59.134Z,8.93
2018-08-20T00:24:02.591Z,8.58
2018-08-20T00:25:15.545Z,8.78
2018-08-20T00:26:19.005Z,8.88
2018-08-20T00:27:22.553Z,8.20
2018-08-20T00:28:26.699Z,8.08
2018-08-20T00:29:30.399Z,8.13
2018-08-20T00:30:33.905Z,8.83
2018-08-20T00:31:37.377Z,9.15
2018-08-20T00:32:42.798Z,9.90
2018-08-20T00:33:46.277Z,9.83
2018-08-20T00:34:49.849Z,8.40
2018-08-20T00:35:53.656Z,9.23
2018-08-20T00:36:57.184Z,8.98
2018-08-20T00:38:00.795Z,8.95
2018-08-20T00:39:05.988Z,8.15
2018-08-20T00:40:09.670Z,8.53
2018-08-20T00:41:13.214Z,9.10
2018-08-20T00:42:16.681Z,9.18
2018-08-20T00:43:20.305Z,8.68
2018-08-20T00:44:23.953Z,9.50
2018-08-20T00:45:27.474Z,9.15
2018-08-20T00:46:30.963Z,9.18
2018-08-20T00:47:34.557Z,8.75
2018-08-20T00:48:38.419Z,8.40
2018-08-20T00:49:42.576Z,8.23
2018-08-20T00:50:46.233Z,9.15
2018-08-20T00:51:49.780Z,9.08
2018-08-20T00:52:53.317Z,8.73
2018-08-20T00:53:57.405Z,8.90
2018-08-20T00:55:00.860Z,9.25
2018-08-20T00:56:04.548Z,8.95
2018-08-20T00:57:08.053Z,8.48
2018-08-20T00:58:11.876Z,8.50
2018-08-20T00:59:15.880Z,8.90
2018-08-20T01:00:19.401Z,8.75
2018-08-20T01:01:22.918Z,7.95
2018-08-20T01:02:30.572Z,9.08
2018-08-20T01:03:34.099Z,8.53
2018-08-20T01:04:37.606Z,7.87
2018-08-20T01:05:41.210Z,8.20
2018-08-20T01:06:44.684Z,8.75
2018-08-20T01:07:48.527Z,7.95
2018-08-20T01:08:52.397Z,8.10
2018-08-20T01:09:56.975Z,8.55
2018-08-20T01:11:00.556Z,7.62
2018-08-20T01:12:04.173Z,8.70
2018-08-20T01:13:07.718Z,8.38
2018-08-20T01:14:12.049Z,8.15
2018-08-20T01:15:16.157Z,8.90
2018-08-20T01:16:19.726Z,8.03
2018-08-20T01:17:23.328Z,8.33
2018-08-20T01:18:26.913Z,9.15
2018-08-20T01:19:30.393Z,9.03
2018-08-20T01:20:35.128Z,8.83
2018-08-20T01:21:38.703Z,8.73
2018-08-20T01:22:42.521Z,8.55
2018-08-20T01:23:46.019Z,10.00
2018-08-20T01:24:49.560Z,7.92
2018-08-20T01:25:53.190Z,8.50
2018-08-20T01:26:56.789Z,8.23
2018-08-20T01:28:00.293Z,8.95
2018-08-20T01:29:03.857Z,8.55
2018-08-20T01:30:08.149Z,8.50
2018-08-20T01:31:12.966Z,9.38
2018-08-20T01:32:16.521Z,8.75
2018-08-20T01:33:20.118Z,8.70
2018-08-20T01:34:23.800Z,8.28
2018-08-20T01:35:28.714Z,8.78
2018-08-20T01:36:32.485Z,9.00
2018-08-20T01:37:35.979Z,9.15
2018-08-20T01:38:39.625Z,8.95
2018-08-20T01:39:44.270Z,9.28
2018-08-20T01:40:47.809Z,8.88
2018-08-20T01:41:51.345Z,9.23
2018-08-20T01:42:55.128Z,9.05
2018-08-20T01:43:58.669Z,8.55
2018-08-20T01:45:02.196Z,8.43
2018-08-20T01:46:05.816Z,8.78
2018-08-20T01:47:09.942Z,8.25
2018-08-20T01:48:13.477Z,8.80
2018-08-20T01:49:16.996Z,8.23
2018-08-20T01:50:20.544Z,8.63
2018-08-20T01:51:24.125Z,8.28
2018-08-20T01:52:27.592Z,7.60
2018-08-20T01:53:31.279Z,7.20
2018-08-20T01:54:35.996Z,8.90
2018-08-20T01:55:40.233Z,8.08
2018-08-20T01:56:43.721Z,8.03
2018-08-20T01:57:47.816Z,7.85
2018-08-20T01:58:51.923Z,7.45
2018-08-20T01:59:55.664Z,8.63
2018-08-20T02:00:59.245Z,8.08
2018-08-20T02:02:02.746Z,8.23
2018-08-20T02:03:06.258Z,9.90
2018-08-20T02:04:10.050Z,8.48
2018-08-20T02:05:13.692Z,7.45
2018-08-20T02:06:17.334Z,7.97
2018-08-20T02:07:20.911Z,8.18
2018-08-20T02:08:24.446Z,7.75
2018-08-20T02:09:27.949Z,7.87
2018-08-20T02:10:31.785Z,8.30
2018-08-20T02:11:35.248Z,7.95
2018-08-20T02:12:40.354Z,8.25
2018-08-20T02:13:43.891Z,7.95
2018-08-20T02:14:47.661Z,8.23
2018-08-20T02:15:52.918Z,8.08
2018-08-20T02:16:57.861Z,8.50
2018-08-20T02:18:02.142Z,7.87
2018-08-20T02:19:06.319Z,8.20
2018-08-20T02:20:10.031Z,7.55
2018-08-20T02:21:14.200Z,8.08
2018-08-20T02:22:18.291Z,7.95
2018-08-20T02:23:21.777Z,8.45
2018-08-20T02:24:25.328Z,8.58
2018-08-20T02:25:29.351Z,8.10
2018-08-20T02:26:32.999Z,8.38
2018-08-20T02:27:36.556Z,8.13
2018-08-20T02:28:40.050Z,7.92
2018-08-20T02:29:43.559Z,8.15
2018-08-20T02:30:47.051Z,8.28
2018-08-20T02:31:50.605Z,9.00
2018-08-20T02:32:54.156Z,8.43
2018-08-20T02:33:58.678Z,8.20
2018-08-20T02:35:02.178Z,8.78
2018-08-20T02:36:06.193Z,9.05
2018-08-20T02:37:09.751Z,8.55
2018-08-20T02:38:13.271Z,8.18
2018-08-20T02:39:16.861Z,8.55
2018-08-20T02:40:20.420Z,8.48
2018-08-20T02:41:23.911Z,8.40
2018-08-20T02:42:27.558Z,8.85
2018-08-20T02:43:31.843Z,8.75
2018-08-20T02:44:35.423Z,7.83
2018-08-20T02:45:38.994Z,8.45
2018-08-20T02:46:49.024Z,8.68
2018-08-20T02:47:52.848Z,8.18
2018-08-20T02:48:56.322Z,7.78
2018-08-20T02:49:59.832Z,9.08
2018-08-20T02:51:03.406Z,8.78
2018-08-20T02:52:07.016Z,7.60
2018-08-20T02:53:10.602Z,9.15
2018-08-20T02:54:14.316Z,9.13
2018-08-20T02:55:17.802Z,8.93
2018-08-20T02:56:21.396Z,8.85
2018-08-20T02:57:24.948Z,8.05
2018-08-20T02:58:28.455Z,9.35
2018-08-20T02:59:31.973Z,9.40
2018-08-20T03:00:35.517Z,9.03
2018-08-20T03:01:39.024Z,8.95
2018-08-20T03:02:42.712Z,9.15
2018-08-20T03:03:46.743Z,8.28
2018-08-20T03:04:50.657Z,8.58
2018-08-20T03:05:54.240Z,8.35
2018-08-20T03:06:57.854Z,8.90
2018-08-20T03:08:01.680Z,7.97
2018-08-20T03:09:10.986Z,8.20
2018-08-20T03:10:14.564Z,8.53
2018-08-20T03:11:18.045Z,8.65
2018-08-20T03:12:22.924Z,8.78
2018-08-20T03:13:26.520Z,8.28
2018-08-20T03:14:30.178Z,8.35
2018-08-20T03:15:33.649Z,7.90
2018-08-20T03:16:37.820Z,8.25
2018-08-20T03:17:41.286Z,8.75
2018-08-20T03:18:44.819Z,8.78
2018-08-20T03:19:48.394Z,8.60
2018-08-20T03:20:52.010Z,8.95
2018-08-20T03:21:55.509Z,8.45
2018-08-20T03:22:59.177Z,8.48
2018-08-20T03:24:02.670Z,8.88
2018-08-20T03:25:07.067Z,9.88
2018-08-20T03:26:10.693Z,9.33
2018-08-20T03:27:14.364Z,8.63
2018-08-20T03:28:17.854Z,9.18
2018-08-20T03:29:21.819Z,8.30
2018-08-20T03:30:25.313Z,9.48
2018-08-20T03:31:30.372Z,9.38
2018-08-20T03:32:33.858Z,8.73
2018-08-20T03:33:37.694Z,9.58
2018-08-20T03:34:41.202Z,9.28
2018-08-20T03:35:46.110Z,8.35
2018-08-20T03:36:49.646Z,9.05
2018-08-20T03:37:54.491Z,10.90
2018-08-20T03:38:57.942Z,8.68
2018-08-20T03:40:01.449Z,9.28
2018-08-20T03:41:05.278Z,8.83
2018-08-20T03:42:09.596Z,9.53
2018-08-20T03:43:13.271Z,8.55
2018-08-20T03:44:16.932Z,10.93
2018-08-20T03:45:20.468Z,9.73
2018-08-20T03:46:23.984Z,9.53
2018-08-20T03:47:28.515Z,9.40
2018-08-20T03:48:32.337Z,9.85
2018-08-20T03:49:36.029Z,9.83
2018-08-20T03:50:39.608Z,10.00
2018-08-20T03:51:44.069Z,9.80
2018-08-20T03:52:47.723Z,9.40
2018-08-20T03:53:51.232Z,9.35
2018-08-20T03:54:55.320Z,10.00
2018-08-20T03:55:59.009Z,9.48
2018-08-20T03:57:02.715Z,11.48
2018-08-20T03:58:06.420Z,10.48
2018-08-20T03:59:14.941Z,10.35
2018-08-20T04:00:22.949Z,9.68
2018-08-20T04:01:26.936Z,9.35
2018-08-20T04:02:30.468Z,10.90
2018-08-20T04:03:33.948Z,10.28
2018-08-20T04:04:37.526Z,10.98
2018-08-20T04:05:41.228Z,10.10
2018-08-20T04:06:44.743Z,10.20
2018-08-20T04:07:48.331Z,9.83
2018-08-20T04:08:52.441Z,10.93
2018-08-20T04:09:56.645Z,10.00
2018-08-20T04:11:00.119Z,10.93
2018-08-20T04:12:04.592Z,10.60
2018-08-20T04:13:08.375Z,11.05
2018-08-20T04:14:11.940Z,10.20
2018-08-20T04:15:15.453Z,11.35
2018-08-20T04:16:20.063Z,11.00
2018-08-20T04:17:23.555Z,10.70
2018-08-20T04:18:27.293Z,10.95
2018-08-20T04:19:30.927Z,10.58
2018-08-20T04:20:34.455Z,10.45
2018-08-20T04:21:38.098Z,11.75
2018-08-20T04:22:41.711Z,11.18
2018-08-20T04:23:45.187Z,9.80
2018-08-20T04:24:49.124Z,10.90
2018-08-20T04:25:52.591Z,10.05
2018-08-20T04:26:56.079Z,10.53
2018-08-20T04:27:59.628Z,11.53
2018-08-20T04:29:03.254Z,11.03
2018-08-20T04:30:06.864Z,10.30
2018-08-20T04:31:10.704Z,9.88
2018-08-20T04:32:14.191Z,10.35
2018-08-20T04:33:17.823Z,10.65
2018-08-20T04:34:21.832Z,10.03
2018-08-20T04:35:25.364Z,10.68
2018-08-20T04:36:28.993Z,10.25
2018-08-20T04:37:32.492Z,10.90
2018-08-20T04:38:36.107Z,10.75
2018-08-20T04:39:39.932Z,11.25
2018-08-20T04:40:43.528Z,10.30
2018-08-20T04:41:47.203Z,10.30
2018-08-20T04:42:50.781Z,10.35
2018-08-20T04:43:54.270Z,9.70
2018-08-20T04:44:58.506Z,10.08
2018-08-20T04:46:02.048Z,11.05
2018-08-20T04:47:05.722Z,10.03
2018-08-20T04:48:10.342Z,10.13
2018-08-20T04:49:14.045Z,9.75
2018-08-20T04:50:17.782Z,11.00
2018-08-20T04:51:22.433Z,9.40
2018-08-20T04:52:26.671Z,9.95
2018-08-20T04:53:30.337Z,11.40
2018-08-20T04:54:33.914Z,10.03
2018-08-20T04:55:37.627Z,10.13
2018-08-20T04:56:41.137Z,9.83
2018-08-20T04:57:44.692Z,12.20
2018-08-20T04:58:48.824Z,11.05
2018-08-20T04:59:52.486Z,10.20
2018-08-20T05:00:56.053Z,9.60
2018-08-20T05:01:59.571Z,10.30
2018-08-20T05:03:03.079Z,10.08
2018-08-20T05:04:07.277Z,10.78
2018-08-20T05:05:11.296Z,10.75
2018-08-20T05:06:14.823Z,11.53
2018-08-20T05:07:18.518Z,10.58
2018-08-20T05:08:22.006Z,10.30
2018-08-20T05:09:26.227Z,10.98
2018-08-20T05:10:29.769Z,10.72
2018-08-20T05:11:33.307Z,11.20
2018-08-20T05:12:36.875Z,10.38
2018-08-20T05:13:40.729Z,10.70
2018-08-20T05:14:44.203Z,10.82
2018-08-20T05:15:47.843Z,9.63
2018-08-20T05:16:51.335Z,10.50
2018-08-20T05:17:54.914Z,11.05
2018-08-20T05:18:58.464Z,10.03
2018-08-20T05:20:02.761Z,10.70
2018-08-20T05:21:06.677Z,10.95
2018-08-20T05:22:10.350Z,10.53
2018-08-20T05:23:14.223Z,9.78
2018-08-20T05:24:17.811Z,11.22
2018-08-20T05:25:21.298Z,10.15
2018-08-20T05:26:24.843Z,10.68
2018-08-20T05:27:28.382Z,8.78
2018-08-20T05:28:32.065Z,9.73
2018-08-20T05:29:35.546Z,10.18
2018-08-20T05:30:40.001Z,10.35
2018-08-20T05:31:45.332Z,10.28
2018-08-20T05:32:51.605Z,9.55
2018-08-20T05:33:55.495Z,10.20
2018-08-20T05:34:59.632Z,10.15
2018-08-20T05:36:03.267Z,10.95
2018-08-20T05:37:06.835Z,10.20
2018-08-20T05:38:10.385Z,10.55
2018-08-20T05:39:14.518Z,10.60
2018-08-20T05:40:18.076Z,9.30
2018-08-20T05:41:21.724Z,10.78
2018-08-20T05:42:25.219Z,11.15
2018-08-20T05:43:28.808Z,9.53
2018-08-20T05:44:32.422Z,9.98
2018-08-20T05:45:35.945Z,10.05
2018-08-20T05:46:40.095Z,9.38
2018-08-20T05:47:43.729Z,9.68
2018-08-20T05:48:47.894Z,10.90
2018-08-20T05:49:51.490Z,10.72
2018-08-20T05:50:55.388Z,10.03
2018-08-20T05:51:58.918Z,9.83
2018-08-20T05:53:02.518Z,10.15
2018-08-20T05:54:06.770Z,9.58
2018-08-20T05:55:10.443Z,10.20
2018-08-20T05:56:14.070Z,10.23
2018-08-20T05:57:18.693Z,10.18
2018-08-20T05:58:22.322Z,10.25
2018-08-20T05:59:25.982Z,12.00
2018-08-20T06:00:30.752Z,9.90
2018-08-20T06:01:34.352Z,9.48
2018-08-20T06:02:37.928Z,10.00
2018-08-20T06:03:41.629Z,9.40
2018-08-20T06:04:45.230Z,9.73
2018-08-20T06:05:49.619Z,10.85
2018-08-20T06:06:53.234Z,10.68
2018-08-20T06:07:57.277Z,9.38
2018-08-20T06:09:00.855Z,9.58
2018-08-20T06:10:05.106Z,10.30
2018-08-20T06:11:08.689Z,10.50
2018-08-20T06:12:12.558Z,11.12
2018-08-20T06:13:16.903Z,11.10
2018-08-20T06:14:20.420Z,9.65
2018-08-20T06:15:24.035Z,9.68
2018-08-20T06:16:27.493Z,9.43
2018-08-20T06:17:32.423Z,9.68
2018-08-20T06:18:36.201Z,9.65
2018-08-20T06:19:40.093Z,10.00
2018-08-20T06:20:43.670Z,9.83
2018-08-20T06:21:49.365Z,9.38
2018-08-20T06:22:53.753Z,9.53
2018-08-20T06:23:57.393Z,10.15
2018-08-20T06:25:01.080Z,10.38
2018-08-20T06:26:04.841Z,10.30
2018-08-20T06:27:08.411Z,10.65
2018-08-20T06:29:21.797Z,11.48
2018-08-20T06:30:25.431Z,9.50
2018-08-20T06:31:29.075Z,10.53
2018-08-20T06:32:32.580Z,10.68
2018-08-20T06:33:36.050Z,10.90
2018-08-20T06:34:39.974Z,10.18
2018-08-20T06:35:43.628Z,10.25
2018-08-20T06:36:47.249Z,11.10
2018-08-20T06:37:50.722Z,11.22
2018-08-20T06:38:54.178Z,12.53
2018-08-20T06:39:57.727Z,12.30
2018-08-20T06:41:01.920Z,11.60
2018-08-20T06:42:05.436Z,10.95
2018-08-20T06:43:08.956Z,12.90
2018-08-20T06:44:12.591Z,11.80
2018-08-20T06:45:17.753Z,11.68
2018-08-20T06:46:21.334Z,11.00
2018-08-20T06:47:24.891Z,11.22
2018-08-20T06:48:28.411Z,11.33
2018-08-20T06:49:31.904Z,12.75
2018-08-20T06:50:35.576Z,11.63
2018-08-20T06:51:39.580Z,12.45
2018-08-20T06:52:44.356Z,12.10
2018-08-20T06:53:47.871Z,12.45
2018-08-20T06:54:51.586Z,12.47
2018-08-20T06:55:55.236Z,12.20
2018-08-20T06:56:58.837Z,13.15
2018-08-20T06:58:02.892Z,13.72
2018-08-20T06:59:06.455Z,13.08
2018-08-20T07:00:11.371Z,12.18
2018-08-20T07:01:15.010Z,12.15
2018-08-20T07:02:18.564Z,12.20
2018-08-20T07:03:22.114Z,12.93
2018-08-20T07:04:25.660Z,13.05
2018-08-20T07:05:29.876Z,14.43
2018-08-20T07:06:33.549Z,12.93
2018-08-20T07:07:38.310Z,12.70
2018-08-20T07:08:42.409Z,13.05
2018-08-20T07:09:45.897Z,13.40
2018-08-20T07:10:49.465Z,12.95
2018-08-20T07:11:53.770Z,13.62
2018-08-20T07:13:07.220Z,13.35
2018-08-20T07:14:10.822Z,13.35
2018-08-20T07:15:15.615Z,12.90
2018-08-20T07:16:19.261Z,11.88
2018-08-20T07:17:23.779Z,13.45
2018-08-20T07:18:27.276Z,13.72
2018-08-20T07:19:30.769Z,13.72
2018-08-20T07:20:34.646Z,14.47
2018-08-20T07:21:38.096Z,12.43
2018-08-20T07:22:41.813Z,14.13
2018-08-20T07:23:45.341Z,12.63
2018-08-20T07:24:48.920Z,13.32
2018-08-20T07:25:53.372Z,14.00
2018-08-20T07:26:56.981Z,14.33
2018-08-20T07:28:00.577Z,12.95
2018-08-20T07:29:04.553Z,13.90
2018-08-20T07:30:09.982Z,14.35
2018-08-20T07:31:13.637Z,14.68
2018-08-20T07:32:17.470Z,13.70
2018-08-20T07:33:21.076Z,14.00
2018-08-20T07:34:24.885Z,14.60
2018-08-20T07:35:28.398Z,13.85
2018-08-20T07:36:31.904Z,14.90
2018-08-20T07:37:35.445Z,13.55
2018-08-20T07:38:39.242Z,14.30
2018-08-20T07:39:44.692Z,14.25
2018-08-20T07:40:49.048Z,15.60
2018-08-20T07:41:52.641Z,13.68
2018-08-20T07:42:56.316Z,15.45
2018-08-20T07:43:59.826Z,13.10
2018-08-20T07:45:03.492Z,14.25
2018-08-20T07:46:07.199Z,14.30
2018-08-20T07:47:11.359Z,13.68
2018-08-20T07:48:15.941Z,14.90
2018-08-20T07:49:20.096Z,14.13
2018-08-20T07:50:23.864Z,13.95
2018-08-20T07:51:27.625Z,14.05
2018-08-20T07:52:31.144Z,13.90
2018-08-20T07:53:34.713Z,14.58
2018-08-20T07:54:39.156Z,12.90
2018-08-20T07:55:43.042Z,13.65
2018-08-20T07:56:47.741Z,13.50
2018-08-20T07:57:51.645Z,14.98
2018-08-20T07:58:55.174Z,14.03
2018-08-20T07:59:58.665Z,14.10
2018-08-20T08:01:04.248Z,13.68
2018-08-20T08:02:10.229Z,14.65
2018-08-20T08:03:14.007Z,13.38
2018-08-20T08:04:17.480Z,15.03
2018-08-20T08:05:21.099Z,14.30
2018-08-20T08:06:25.172Z,14.75
2018-08-20T08:07:28.766Z,14.58
2018-08-20T08:08:32.659Z,14.73
2018-08-20T08:09:36.257Z,14.05
2018-08-20T08:10:40.486Z,14.45
2018-08-20T08:11:44.105Z,15.05
2018-08-20T08:12:47.730Z,14.60
2018-08-20T08:13:51.214Z,15.72
2018-08-20T08:14:54.819Z,14.45
2018-08-20T08:15:58.516Z,14.55
2018-08-20T08:17:01.985Z,15.05
2018-08-20T08:18:06.144Z,16.35
2018-08-20T08:19:10.977Z,14.47
2018-08-20T08:20:15.356Z,15.40
2018-08-20T08:21:18.927Z,15.85
2018-08-20T08:22:22.463Z,14.40
2018-08-20T08:23:26.388Z,14.78
2018-08-20T08:24:29.961Z,14.50
2018-08-20T08:25:33.604Z,15.18
2018-08-20T08:26:38.016Z,14.63
2018-08-20T08:27:41.607Z,14.83
2018-08-20T08:28:45.119Z,15.23
2018-08-20T08:29:48.659Z,15.18
2018-08-20T08:30:52.213Z,14.73
2018-08-20T08:31:55.963Z,15.70
2018-08-20T08:32:59.588Z,14.45
2018-08-20T08:34:03.665Z,15.28
2018-08-20T08:35:08.301Z,15.23
2018-08-20T08:36:11.922Z,15.68
2018-08-20T08:37:15.452Z,15.72
2018-08-20T08:38:19.094Z,15.80
2018-08-20T08:39:22.769Z,15.10
2018-08-20T08:40:26.353Z,15.58
2018-08-20T08:41:29.940Z,15.45
2018-08-20T08:42:33.900Z,15.53
2018-08-20T08:43:37.516Z,15.43
2018-08-20T08:44:41.336Z,15.40
2018-08-20T08:45:44.832Z,15.38
2018-08-20T08:46:48.413Z,14.55
2018-08-20T08:47:51.987Z,15.43
2018-08-20T08:48:55.540Z,14.95
2018-08-20T08:49:59.215Z,16.25
2018-08-20T08:51:02.810Z,16.90
2018-08-20T08:52:06.286Z,15.20
2018-08-20T08:53:09.879Z,16.15
2018-08-20T08:54:13.550Z,15.95
2018-08-20T08:55:17.127Z,15.63
2018-08-20T08:56:20.753Z,16.00
2018-08-20T08:57:25.008Z,15.35
2018-08-20T08:58:28.544Z,16.20
2018-08-20T08:59:32.149Z,16.02
2018-08-20T09:00:35.796Z,14.15
2018-08-20T09:01:39.494Z,15.78
2018-08-20T09:02:43.293Z,14.73
2018-08-20T09:03:47.256Z,14.28
2018-08-20T09:04:50.833Z,15.45
2018-08-20T09:05:54.517Z,15.58
2018-08-20T09:06:58.463Z,16.30
2018-08-20T09:08:02.127Z,14.68
2018-08-20T09:09:07.465Z,14.28
2018-08-20T09:10:11.760Z,14.50
2018-08-20T09:11:15.390Z,16.62
2018-08-20T09:12:18.948Z,14.75
2018-08-20T09:13:22.828Z,14.13
2018-08-20T09:14:26.438Z,15.88
2018-08-20T09:15:30.044Z,15.45
2018-08-20T09:16:34.209Z,14.80
2018-08-20T09:17:38.089Z,14.23
2018-08-20T09:18:41.594Z,14.65
2018-08-20T09:19:45.361Z,13.58
2018-08-20T09:20:48.872Z,13.72
2018-08-20T09:21:52.520Z,13.70
2018-08-20T09:22:56.131Z,13.48
2018-08-20T09:24:00.220Z,13.22
2018-08-20T09:25:04.133Z,13.00
2018-08-20T09:26:08.064Z,12.93
2018-08-20T09:27:12.003Z,11.85
2018-08-20T09:28:15.834Z,12.78
2018-08-20T09:29:19.463Z,12.95
2018-08-20T09:30:24.251Z,12.18
2018-08-20T09:31:27.786Z,13.30
2018-08-20T09:32:31.273Z,11.57
2018-08-20T09:33:35.424Z,11.08
2018-08-20T09:34:38.973Z,11.28
2018-08-20T09:35:43.025Z,11.55
2018-08-20T09:36:46.569Z,10.45
2018-08-20T09:37:50.457Z,11.90
2018-08-20T09:38:54.093Z,11.90
2018-08-20T09:39:57.747Z,13.15
2018-08-20T09:41:01.448Z,12.93
2018-08-20T09:42:05.900Z,12.30
2018-08-20T09:43:09.822Z,11.30
2018-08-20T09:44:13.495Z,12.07
2018-08-20T09:45:17.122Z,12.40
2018-08-20T09:46:20.816Z,12.18
2018-08-20T09:47:24.413Z,12.05
2018-08-20T09:48:28.105Z,12.23
2018-08-20T09:49:32.452Z,11.93
2018-08-20T09:50:36.006Z,12.00
2018-08-20T09:51:40.225Z,11.35
2018-08-20T09:52:44.332Z,10.80
2018-08-20T09:53:47.928Z,11.43
2018-08-20T09:54:51.465Z,11.48
2018-08-20T09:55:55.187Z,12.05
2018-08-20T09:56:59.503Z,11.63
2018-08-20T09:58:03.148Z,12.25
2018-08-20T09:59:06.727Z,11.68
2018-08-20T10:00:17.879Z,11.73
2018-08-20T10:01:21.399Z,11.78
2018-08-20T10:02:24.928Z,12.82
2018-08-20T10:03:29.127Z,12.05
2018-08-20T10:04:32.625Z,13.03
2018-08-20T10:05:36.199Z,12.63
2018-08-20T10:06:39.936Z,11.75
2018-08-20T10:07:44.151Z,12.40
2018-08-20T10:08:47.646Z,12.90
2018-08-20T10:09:51.322Z,12.40
2018-08-20T10:10:54.922Z,11.48
2018-08-20T10:11:58.606Z,11.97
2018-08-20T10:13:02.301Z,12.20
2018-08-20T10:14:06.102Z,13.10
2018-08-20T10:15:10.283Z,11.40
2018-08-20T10:16:13.942Z,11.83
2018-08-20T10:17:17.561Z,11.70
2018-08-20T10:18:21.743Z,11.43
2018-08-20T10:19:25.465Z,10.32
2018-08-20T10:20:29.069Z,11.45
2018-08-20T10:21:32.629Z,10.40
2018-08-20T10:22:36.446Z,11.05
2018-08-20T10:23:39.942Z,11.08
2018-08-20T10:24:43.438Z,11.22
2018-08-20T10:25:47.039Z,10.90
2018-08-20T10:26:50.954Z,10.98
2018-08-20T10:27:54.476Z,10.60
2018-08-20T10:28:58.050Z,10.75
2018-08-20T10:30:01.846Z,11.28
2018-08-20T10:31:06.489Z,11.00
2018-08-20T10:32:10.127Z,10.75
2018-08-20T10:33:14.288Z,11.12
2018-08-20T10:34:17.794Z,9.63
2018-08-20T10:35:21.859Z,9.03
2018-08-20T10:36:25.394Z,9.18
2018-08-20T10:37:29.193Z,10.18
2018-08-20T10:38:32.683Z,9.98
2018-08-20T10:39:37.858Z,9.88
2018-08-20T10:40:41.380Z,8.90
2018-08-20T10:41:46.059Z,9.95
2018-08-20T10:42:49.740Z,10.43
2018-08-20T10:43:53.912Z,10.05
2018-08-20T10:45:02.596Z,10.23
2018-08-20T10:46:11.672Z,10.93
2018-08-20T10:47:15.217Z,10.08
2018-08-20T10:48:18.770Z,11.05
2018-08-20T10:49:22.772Z,10.13
2018-08-20T10:50:26.829Z,10.65
2018-08-20T10:51:31.557Z,11.03
2018-08-20T10:52:35.258Z,11.55
2018-08-20T10:53:38.752Z,10.98
2018-08-20T10:54:42.770Z,10.50
2018-08-20T10:55:46.430Z,10.25
2018-08-20T10:56:50.151Z,11.70
2018-08-20T10:57:53.756Z,11.12
2018-08-20T10:58:57.623Z,12.10
2018-08-20T11:00:01.168Z,12.15
2018-08-20T11:01:04.805Z,11.20
2018-08-20T11:02:09.964Z,10.25
2018-08-20T11:03:13.841Z,11.15
2018-08-20T11:04:17.852Z,11.48
2018-08-20T11:05:21.618Z,10.75
2018-08-20T11:06:26.374Z,10.32
2018-08-20T11:07:29.889Z,10.40
2018-08-20T11:08:33.356Z,10.38
2018-08-20T11:09:37.018Z,10.65
2018-08-20T11:10:40.853Z,10.43
2018-08-20T11:11:44.576Z,10.88
2018-08-20T11:12:48.145Z,10.03
2018-08-20T11:13:51.755Z,10.70
2018-08-20T11:14:55.218Z,11.05
2018-08-20T11:15:58.801Z,12.07
2018-08-20T11:17:02.545Z,12.03
2018-08-20T11:18:06.287Z,12.13
2018-08-20T11:19:10.060Z,12.55
2018-08-20T11:20:15.084Z,12.37
2018-08-20T11:21:18.758Z,11.80
2018-08-20T11:22:22.388Z,11.65
2018-08-20T11:23:28.336Z,11.48
2018-08-20T11:24:33.197Z,11.53
2018-08-20T11:25:36.887Z,11.95
2018-08-20T11:26:40.994Z,20.95
2018-08-20T11:27:45.831Z,13.00
2018-08-20T11:28:49.563Z,11.28
2018-08-20T11:29:53.251Z,12.58
2018-08-20T11:30:56.907Z,11.83
2018-08-20T11:32:00.504Z,12.15
2018-08-20T11:33:04.198Z,11.85
2018-08-20T11:34:08.028Z,12.33
2018-08-20T11:35:12.438Z,11.18
2018-08-20T11:36:16.129Z,11.28
2018-08-20T11:37:19.729Z,10.72
2018-08-20T11:38:23.285Z,10.60
2018-08-20T11:39:27.034Z,9.75
2018-08-20T11:40:30.660Z,8.95
2018-08-20T11:41:34.813Z,8.90
2018-08-20T11:42:38.382Z,8.13
2018-08-20T11:43:42.006Z,7.12
2018-08-20T11:44:45.534Z,7.12
2018-08-20T11:45:49.409Z,7.65
2018-08-20T11:46:52.974Z,6.83
2018-08-20T11:47:56.569Z,7.37
2018-08-20T11:49:00.413Z,7.28
2018-08-20T11:50:04.031Z,7.40
2018-08-20T11:51:08.110Z,7.78
2018-08-20T11:52:11.817Z,7.33
2018-08-20T11:53:16.299Z,6.17
2018-08-20T11:54:20.374Z,5.47
2018-08-20T11:55:23.884Z,5.05
2018-08-20T11:56:28.499Z,5.25
2018-08-20T11:57:32.071Z,5.42
2018-08-20T11:58:35.639Z,5.50
2018-08-20T11:59:39.643Z,4.62
2018-08-20T12:00:43.906Z,4.80
2018-08-20T12:01:47.645Z,4.03
2018-08-20T12:02:51.388Z,4.67
2018-08-20T12:03:56.008Z,4.15
2018-08-20T12:04:59.680Z,4.47
2018-08-20T12:06:03.857Z,4.15
2018-08-20T12:07:07.705Z,4.28
2018-08-20T12:08:11.471Z,4.28
2018-08-20T12:09:15.003Z,3.80
2018-08-20T12:10:18.744Z,3.77
2018-08-20T12:11:22.388Z,3.65
2018-08-20T12:12:26.407Z,3.08
2018-08-20T12:13:30.200Z,2.98
2018-08-20T12:14:35.029Z,3.20
2018-08-20T12:15:38.560Z,2.83
2018-08-20T12:16:42.875Z,3.20
2018-08-20T12:17:46.992Z,3.08
2018-08-20T12:18:51.221Z,3.10
2018-08-20T12:19:54.984Z,2.87
2018-08-20T12:20:58.560Z,2.87
2018-08-20T12:22:02.149Z,2.70
2018-08-20T12:23:06.223Z,2.65
2018-08-20T12:24:10.386Z,2.50
2018-08-20T12:25:15.096Z,3.67
2018-08-20T12:26:18.784Z,2.85
2018-08-20T12:27:22.366Z,2.65
2018-08-20T12:28:25.960Z,2.98
2018-08-20T12:29:29.510Z,3.02
2018-08-20T12:30:33.671Z,2.92
2018-08-20T12:31:38.876Z,3.37
2018-08-20T12:32:42.911Z,3.58
2018-08-20T12:33:46.433Z,3.22
2018-08-20T12:34:50.265Z,3.67
2018-08-20T12:35:54.033Z,3.77
2018-08-20T12:36:59.110Z,3.27
2018-08-20T12:38:02.793Z,3.60
2018-08-20T12:39:07.322Z,3.40
2018-08-20T12:40:10.897Z,3.70
2018-08-20T12:41:15.139Z,3.77
2018-08-20T12:42:19.643Z,3.10
2018-08-20T12:43:23.743Z,3.67
2018-08-20T12:44:28.271Z,3.40
2018-08-20T12:45:33.796Z,3.72
2018-08-20T12:46:38.424Z,3.72
2018-08-20T12:47:43.923Z,3.60
2018-08-20T12:48:51.215Z,4.00
2018-08-20T12:49:55.837Z,3.90
2018-08-20T12:51:00.126Z,3.98
2018-08-20T12:52:04.524Z,3.40
2018-08-20T12:53:09.354Z,4.00
2018-08-20T12:54:13.511Z,3.55
2018-08-20T12:55:17.976Z,3.55
2018-08-20T12:56:23.495Z,3.47
2018-08-20T12:57:29.302Z,3.15
2018-08-20T12:58:33.634Z,3.50
2018-08-20T12:59:38.699Z,3.87
2018-08-20T13:00:42.582Z,4.35
2018-08-20T13:01:47.629Z,3.95
2018-08-20T13:02:51.520Z,3.95
2018-08-20T13:03:55.455Z,3.95
2018-08-20T13:04:59.577Z,4.35
2018-08-20T13:06:05.086Z,4.03
2018-08-20T13:07:09.051Z,4.17
2018-08-20T13:08:13.925Z,4.20
2018-08-20T13:09:18.528Z,3.90
2018-08-20T13:10:22.536Z,4.80
2018-08-20T13:11:26.943Z,4.10
2018-08-20T13:12:31.993Z,4.25
2018-08-20T13:13:36.001Z,3.20
2018-08-20T13:14:41.664Z,2.50
2018-08-20T13:15:45.830Z,2.95
2018-08-20T13:16:50.189Z,2.40
2018-08-20T13:17:54.685Z,2.62
2018-08-20T13:19:00.505Z,2.58
2018-08-20T13:20:05.650Z,2.45
2018-08-20T13:21:09.480Z,2.58
2018-08-20T13:22:13.311Z,2.77
2018-08-20T13:23:17.039Z,2.22
2018-08-20T13:24:20.536Z,2.60
2018-08-20T13:25:25.595Z,2.52
2018-08-20T13:26:29.523Z,2.98
2018-08-20T13:27:34.102Z,2.52
2018-08-20T13:28:38.077Z,3.05
2018-08-20T13:29:42.029Z,3.22
2018-08-20T13:30:45.746Z,2.72
2018-08-20T13:31:49.315Z,2.87
2018-08-20T13:32:54.082Z,2.50
2018-08-20T13:33:57.691Z,2.30
2018-08-20T13:35:02.587Z,2.52
2018-08-20T13:36:06.178Z,2.27
2018-08-20T13:37:09.764Z,2.22
2018-08-20T13:38:13.749Z,1.87
2018-08-20T13:39:17.408Z,1.92
2018-08-20T13:40:20.974Z,1.98
2018-08-20T13:41:26.397Z,2.08
2018-08-20T13:42:30.596Z,2.17
2018-08-20T13:43:34.179Z,1.92
2018-08-20T13:44:37.822Z,2.40
2018-08-20T13:45:41.940Z,1.92
2018-08-20T13:46:46.207Z,2.00
2018-08-20T13:47:49.813Z,2.20
2018-08-20T13:48:53.859Z,2.17
2018-08-20T13:50:05.683Z,2.20
2018-08-20T13:51:09.692Z,2.20
2018-08-20T13:52:13.917Z,2.70
2018-08-20T13:53:17.516Z,2.60
2018-08-20T13:54:21.263Z,2.65
2018-08-20T13:55:24.953Z,2.60
2018-08-20T13:56:30.255Z,2.10
2018-08-20T13:57:38.786Z,2.65
2018-08-20T13:58:42.380Z,2.58